Time;durP1;ratioP1;P1;durP2;ratioP2;P2;SDS_P1;SDS_P2;PMS_P1;PMS_P2;Temp;Humidity;BMP_temperature;BMP_pressure;BME280_temperature;BME280_humidity;BME280_pressure;Samples;Min_cycle;Max_cycle;Signal;HPM_P1;HPM_P2
2022/10/17 00:00:47;;;;;;;1.10;1.00;;;13.80;99.90;;;;;;4807144;29;20225;-83
2022/10/17 00:03:13;;;;;;;2.30;1.00;;;13.80;99.90;;;;;;4804874;29;20226;-82
2022/10/17 00:05:45;;;;;;;4.22;0.93;;;13.80;99.90;;;;;;4820124;29;20248;-83
2022/10/17 00:08:12;;;;;;;1.58;1.00;;;13.80;99.90;;;;;;4806166;29;20267;-84
2022/10/17 00:10:38;;;;;;;5.32;0.90;;;13.80;99.90;;;;;;4806351;29;20209;-83
2022/10/17 00:13:04;;;;;;;1.75;0.90;;;13.70;99.90;;;;;;4805682;29;20273;-83
2022/10/17 00:15:30;;;;;;;2.78;1.05;;;13.70;99.90;;;;;;4802177;29;20700;-83
2022/10/17 00:17:56;;;;;;;4.32;0.75;;;13.70;99.90;;;;;;4804971;29;20190;-82
2022/10/17 00:20:22;;;;;;;2.00;1.08;;;13.80;99.90;;;;;;4807010;29;20178;-83
2022/10/17 00:22:47;;;;;;;3.83;1.20;;;13.80;99.90;;;;;;4804636;29;20723;-83
2022/10/17 00:25:13;;;;;;;1.85;1.02;;;13.70;99.90;;;;;;4806746;29;20273;-84
2022/10/17 00:27:41;;;;;;;2.60;0.90;;;13.70;99.90;;;;;;4805445;29;20214;-84
2022/10/17 00:30:10;;;;;;;4.43;1.00;;;13.70;99.90;;;;;;4806663;29;20633;-83
2022/10/17 00:32:36;;;;;;;2.88;0.95;;;13.70;99.90;;;;;;4820597;29;20245;-83
2022/10/17 00:35:03;;;;;;;1.40;0.90;;;13.70;99.90;;;;;;4824047;29;20258;-84
2022/10/17 00:37:30;;;;;;;1.63;0.95;;;13.60;99.90;;;;;;4806886;29;20233;-84
2022/10/17 00:39:56;;;;;;;2.13;0.90;;;13.60;99.90;;;;;;4807953;29;20543;-83
2022/10/17 00:42:23;;;;;;;1.05;0.95;;;13.60;99.90;;;;;;4823678;29;20197;-82
2022/10/17 00:44:49;;;;;;;3.65;0.90;;;13.60;99.90;;;;;;4824173;29;20190;-81
2022/10/17 00:47:19;;;;;;;1.02;0.80;;;13.60;99.90;;;;;;4810536;29;20197;-83
2022/10/17 00:49:47;;;;;;;2.97;1.20;;;13.60;99.90;;;;;;4808445;29;20277;-82
2022/10/17 00:52:18;;;;;;;2.45;1.00;;;13.60;99.90;;;;;;4808176;29;20253;-83
2022/10/17 00:54:48;;;;;;;2.35;1.00;;;13.60;99.90;;;;;;4823882;29;20194;-83
2022/10/17 00:57:15;;;;;;;1.63;1.10;;;13.60;99.90;;;;;;4807967;29;20625;-82
2022/10/17 00:59:42;;;;;;;2.58;1.10;;;13.60;99.90;;;;;;4822837;29;20526;-82
2022/10/17 01:02:14;;;;;;;1.55;1.08;;;13.50;99.90;;;;;;4818427;29;20205;-83
2022/10/17 01:04:43;;;;;;;4.82;1.13;;;13.50;99.90;;;;;;4808212;29;20226;-85
2022/10/17 01:07:09;;;;;;;2.00;1.23;;;13.50;99.90;;;;;;4807047;29;20221;-82
2022/10/17 01:09:35;;;;;;;2.85;1.10;;;13.50;99.90;;;;;;4823613;29;20186;-83
2022/10/17 01:12:28;;;;;;;4.90;1.30;;;13.50;99.90;;;;;;4823435;29;20198;-83
2022/10/17 01:15:16;;;;;;;4.68;1.10;;;13.60;99.90;;;;;;4823782;29;20503;-83
2022/10/17 01:18:15;;;;;;;3.03;1.17;;;13.60;99.90;;;;;;4823663;29;20313;-84
2022/10/17 01:21:03;;;;;;;5.40;1.10;;;13.60;99.90;;;;;;4807328;29;20194;-85
2022/10/17 01:23:52;;;;;;;3.25;1.10;;;13.60;99.90;;;;;;4824368;29;20178;-84
2022/10/17 01:26:25;;;;;;;4.40;1.27;;;13.50;99.90;;;;;;4823111;29;20218;-84
2022/10/17 01:29:21;;;;;;;2.83;1.00;;;13.50;99.90;;;;;;4824118;29;20170;-84
2022/10/17 01:31:48;;;;;;;3.03;1.00;;;13.60;99.90;;;;;;4809995;29;20261;-83
2022/10/17 01:34:35;;;;;;;3.08;0.90;;;13.60;99.90;;;;;;4810166;29;20189;-82
2022/10/17 01:37:13;;;;;;;1.75;1.10;;;13.60;99.90;;;;;;4810376;29;20196;-83
2022/10/17 01:39:50;;;;;;;2.55;1.23;;;13.60;99.90;;;;;;4811435;29;20181;-83
2022/10/17 01:42:23;;;;;;;1.08;0.90;;;13.50;99.90;;;;;;4809242;29;20228;-82
2022/10/17 01:45:00;;;;;;;1.73;0.93;;;13.50;99.90;;;;;;4825583;29;20186;-82
2022/10/17 01:47:32;;;;;;;1.45;1.17;;;13.50;99.90;;;;;;4825241;29;20193;-82
2022/10/17 01:50:05;;;;;;;6.68;1.27;;;13.40;99.90;;;;;;4811069;29;20190;-82
2022/10/17 01:52:41;;;;;;;3.83;1.35;;;13.50;99.90;;;;;;4826560;29;20205;-82
2022/10/17 01:55:19;;;;;;;3.22;1.17;;;13.40;99.90;;;;;;4826849;29;20537;-81
2022/10/17 01:57:52;;;;;;;7.15;1.30;;;13.30;99.90;;;;;;4820160;29;20644;-82
2022/10/17 02:00:21;;;;;;;1.50;1.10;;;13.40;99.90;;;;;;4792658;29;20229;-82
2022/10/17 02:02:51;;;;;;;1.08;0.95;;;13.40;99.90;;;;;;4809058;29;20256;-83
2022/10/17 02:05:23;;;;;;;1.52;1.30;;;13.40;99.90;;;;;;4809012;29;20249;-83
2022/10/17 02:07:49;;;;;;;4.97;1.30;;;13.30;99.90;;;;;;4810403;29;20194;-83
2022/10/17 02:10:34;;;;;;;1.50;1.15;;;13.30;99.90;;;;;;4810883;29;20186;-83
2022/10/17 02:13:24;;;;;;;1.70;1.30;;;13.20;99.90;;;;;;4819398;29;20214;-83
2022/10/17 02:16:24;;;;;;;4.20;1.33;;;13.30;99.90;;;;;;4824761;29;20536;-82
2022/10/17 02:19:01;;;;;;;2.65;1.30;;;13.30;99.90;;;;;;4826668;29;20190;-82
2022/10/17 02:21:32;;;;;;;1.40;1.23;;;13.30;99.90;;;;;;4825219;29;20186;-82
2022/10/17 02:24:11;;;;;;;3.88;1.02;;;13.20;99.90;;;;;;4810505;29;20652;-82
2022/10/17 02:26:47;;;;;;;2.47;1.40;;;13.10;99.90;;;;;;4809420;29;20226;-81
2022/10/17 02:29:18;;;;;;;2.92;1.50;;;13.00;99.90;;;;;;4825770;29;20201;-82
2022/10/17 02:31:46;;;;;;;2.92;1.30;;;13.00;99.90;;;;;;4809548;29;20238;-82
2022/10/17 02:34:45;;;;;;;2.80;1.08;;;12.90;99.90;;;;;;4810370;29;20212;-82
2022/10/17 02:37:14;;;;;;;6.20;1.10;;;12.90;99.90;;;;;;4807003;29;20202;-82
2022/10/17 02:39:41;;;;;;;2.15;0.98;;;12.90;99.90;;;;;;4808918;29;20297;-82
2022/10/17 02:42:10;;;;;;;1.67;1.10;;;12.80;99.90;;;;;;4824878;29;20202;-82
2022/10/17 02:44:42;;;;;;;2.00;1.17;;;12.80;99.90;;;;;;4826205;29;20190;-81
2022/10/17 02:47:17;;;;;;;4.40;1.10;;;12.70;99.90;;;;;;4817756;29;20222;-82
2022/10/17 02:49:49;;;;;;;7.35;1.50;;;12.70;99.90;;;;;;4826227;29;20177;-82
2022/10/17 02:52:38;;;;;;;1.50;1.15;;;12.70;99.90;;;;;;4809433;29;20281;-82
2022/10/17 02:55:11;;;;;;;1.50;1.10;;;12.60;99.90;;;;;;4809976;29;20185;-81
2022/10/17 02:57:48;;;;;;;3.75;1.10;;;12.70;99.90;;;;;;4824222;29;20209;-81
2022/10/17 03:00:15;;;;;;;2.13;1.35;;;12.60;99.90;;;;;;4811473;29;20510;-82
2022/10/17 03:02:44;;;;;;;1.90;1.25;;;12.60;99.90;;;;;;4825481;29;20286;-82
2022/10/17 03:05:12;;;;;;;1.38;1.27;;;12.60;99.90;;;;;;4826122;29;20208;-82
2022/10/17 03:07:38;;;;;;;1.42;0.95;;;12.60;99.90;;;;;;4824424;29;20230;-82
2022/10/17 03:10:05;;;;;;;3.40;1.25;;;12.60;99.90;;;;;;4826158;29;20254;-82
2022/10/17 03:12:30;;;;;;;1.98;1.20;;;12.40;99.90;;;;;;4809801;29;20204;-83
2022/10/17 03:14:56;;;;;;;1.70;1.30;;;12.50;99.90;;;;;;4823421;29;20190;-82
2022/10/17 03:17:22;;;;;;;1.42;1.10;;;12.50;99.90;;;;;;4825122;29;20648;-82
2022/10/17 03:19:48;;;;;;;1.60;1.30;;;12.50;99.90;;;;;;4826013;29;20178;-83
2022/10/17 03:22:13;;;;;;;4.32;1.40;;;12.40;99.90;;;;;;4808838;29;20246;-83
2022/10/17 03:24:39;;;;;;;1.30;1.10;;;12.40;99.90;;;;;;4825866;29;20706;-81
2022/10/17 03:27:05;;;;;;;2.85;1.30;;;12.40;99.90;;;;;;4824548;29;20221;-81
2022/10/17 03:29:30;;;;;;;2.65;1.33;;;12.40;99.90;;;;;;4808523;29;20190;-82
2022/10/17 03:31:56;;;;;;;1.50;1.23;;;12.40;99.90;;;;;;4824966;29;20238;-82
2022/10/17 03:34:22;;;;;;;5.85;1.23;;;12.20;99.90;;;;;;4818180;29;20198;-82
2022/10/17 03:36:47;;;;;;;2.00;1.20;;;12.20;99.90;;;;;;4823887;29;20190;-82
2022/10/17 03:39:13;;;;;;;1.65;1.25;;;12.20;99.90;;;;;;4825809;29;20193;-82
2022/10/17 03:41:39;;;;;;;5.53;1.35;;;12.20;99.90;;;;;;4824126;29;20186;-81
2022/10/17 03:44:04;;;;;;;3.55;1.15;;;12.20;99.90;;;;;;4824985;29;20186;-82
2022/10/17 03:46:30;;;;;;;2.47;1.30;;;12.20;99.90;;;;;;4822234;29;20295;-82
2022/10/17 03:48:56;;;;;;;1.50;1.27;;;12.10;99.90;;;;;;4825660;29;20253;-81
2022/10/17 03:51:21;;;;;;;2.97;1.13;;;12.10;99.90;;;;;;4824311;29;20631;-82
2022/10/17 03:53:47;;;;;;;1.75;1.40;;;12.10;99.90;;;;;;4808186;29;20190;-82
2022/10/17 03:56:14;;;;;;;1.85;1.13;;;12.20;99.90;;;;;;4808038;29;20190;-82
2022/10/17 03:58:40;;;;;;;1.70;1.30;;;12.10;99.90;;;;;;4822714;29;20193;-82
2022/10/17 04:01:08;;;;;;;4.80;1.30;;;12.10;99.90;;;;;;4808204;29;20198;-81
2022/10/17 04:03:37;;;;;;;8.43;1.30;;;12.00;99.90;;;;;;4807586;29;20584;-80
2022/10/17 04:06:04;;;;;;;3.55;1.23;;;12.00;99.90;;;;;;4808834;29;20202;-82
2022/10/17 04:08:30;;;;;;;4.68;1.30;;;12.10;99.90;;;;;;4807970;29;20205;-82
2022/10/17 04:11:05;;;;;;;4.90;1.20;;;12.00;99.90;;;;;;4807907;29;20186;-82
2022/10/17 04:13:30;;;;;;;1.55;1.17;;;11.90;99.90;;;;;;4816039;29;20193;-82
2022/10/17 04:16:05;;;;;;;1.88;1.08;;;11.90;99.90;;;;;;4822915;29;20652;-82
2022/10/17 04:18:31;;;;;;;1.20;1.10;;;11.90;99.90;;;;;;4823912;29;20632;-81
2022/10/17 04:20:56;;;;;;;7.15;1.63;;;11.80;99.90;;;;;;4824164;29;20189;-81
2022/10/17 04:23:23;;;;;;;7.88;1.35;;;11.80;99.90;;;;;;4823965;29;20209;-82
2022/10/17 04:25:48;;;;;;;3.15;1.40;;;11.80;99.90;;;;;;4825181;29;20206;-82
2022/10/17 04:28:14;;;;;;;1.55;1.30;;;11.80;99.90;;;;;;4821615;29;20185;-82
2022/10/17 04:30:40;;;;;;;6.38;1.52;;;11.80;99.90;;;;;;4808191;29;20193;-82
2022/10/17 04:33:06;;;;;;;1.40;1.30;;;11.80;99.90;;;;;;4823649;29;20194;-82
2022/10/17 04:35:32;;;;;;;1.55;1.30;;;11.70;99.90;;;;;;4824920;29;20207;-82
2022/10/17 04:37:57;;;;;;;1.30;1.20;;;11.70;99.90;;;;;;4823921;29;20202;-82
2022/10/17 04:40:23;;;;;;;3.40;1.40;;;11.80;99.90;;;;;;4808495;29;20177;-82
2022/10/17 04:42:49;;;;;;;1.80;1.25;;;11.70;99.90;;;;;;4809855;29;20209;-82
2022/10/17 04:45:15;;;;;;;5.07;1.40;;;11.70;99.90;;;;;;4824672;29;20202;-81
2022/10/17 04:47:40;;;;;;;1.63;1.33;;;11.60;99.90;;;;;;4823812;29;20201;-80
2022/10/17 04:50:06;;;;;;;1.42;1.17;;;11.70;99.90;;;;;;4808136;29;20327;-82
2022/10/17 04:52:36;;;;;;;4.13;1.35;;;11.60;99.90;;;;;;4823853;29;20539;-81
2022/10/17 04:55:04;;;;;;;2.13;1.20;;;11.60;99.90;;;;;;4808161;29;20182;-82
2022/10/17 04:57:29;;;;;;;4.07;1.40;;;11.60;99.90;;;;;;4822791;29;20204;-81
2022/10/17 04:59:55;;;;;;;1.58;1.30;;;11.50;99.90;;;;;;4807492;29;20186;-82
2022/10/17 05:02:21;;;;;;;3.40;1.35;;;11.50;99.90;;;;;;4823524;29;20630;-82
2022/10/17 05:04:46;;;;;;;2.47;1.40;;;11.50;99.90;;;;;;4824957;29;20254;-82
2022/10/17 05:07:12;;;;;;;3.03;1.48;;;11.50;99.90;;;;;;4828038;29;20221;-82
2022/10/17 05:09:38;;;;;;;2.88;1.35;;;11.50;99.90;;;;;;4827338;29;20174;-82
2022/10/17 05:12:03;;;;;;;2.30;1.40;;;11.50;99.90;;;;;;4827310;29;20194;-81
2022/10/17 05:14:29;;;;;;;2.90;1.40;;;11.50;99.90;;;;;;4827635;29;20209;-82
2022/10/17 05:16:55;;;;;;;3.45;1.25;;;11.50;99.90;;;;;;4826518;29;20252;-81
2022/10/17 05:19:20;;;;;;;1.83;1.30;;;11.60;99.90;;;;;;4811477;29;20197;-82
2022/10/17 05:21:46;;;;;;;4.40;1.45;;;11.60;99.90;;;;;;4811650;29;20317;-82
2022/10/17 05:24:13;;;;;;;2.20;1.35;;;11.50;99.90;;;;;;4827087;29;20201;-82
2022/10/17 05:26:39;;;;;;;4.80;2.28;;;11.50;99.90;;;;;;4827646;29;20209;-82
2022/10/17 05:29:05;;;;;;;2.00;1.40;;;11.50;99.90;;;;;;4809407;29;20216;-81
2022/10/17 05:31:34;;;;;;;3.60;1.40;;;11.60;99.90;;;;;;4826256;29;20256;-81
2022/10/17 05:34:01;;;;;;;1.92;1.42;;;11.60;99.90;;;;;;4810618;29;20186;-81
2022/10/17 05:36:27;;;;;;;5.25;1.30;;;11.60;99.90;;;;;;4819179;29;20296;-82
2022/10/17 05:38:53;;;;;;;2.45;1.40;;;11.50;99.90;;;;;;4812743;29;20213;-82
2022/10/17 05:41:19;;;;;;;2.05;1.23;;;11.40;99.90;;;;;;4838307;29;20217;-81
2022/10/17 05:43:45;;;;;;;3.05;1.40;;;11.40;99.90;;;;;;4828558;29;20193;-81
2022/10/17 05:46:10;;;;;;;1.67;1.15;;;11.50;99.90;;;;;;4834711;29;20214;-81
2022/10/17 05:48:36;;;;;;;2.55;1.35;;;11.40;99.90;;;;;;4827411;29;20178;-81
2022/10/17 05:51:05;;;;;;;5.45;1.55;;;11.40;99.90;;;;;;4817886;29;20205;-81
2022/10/17 05:53:32;;;;;;;2.03;1.45;;;11.40;99.90;;;;;;4814364;29;20250;-82
2022/10/17 05:56:00;;;;;;;1.83;1.40;;;11.40;99.90;;;;;;4813553;29;20193;-81
2022/10/17 05:58:27;;;;;;;2.97;1.63;;;11.50;99.90;;;;;;4814068;29;20188;-82
2022/10/17 06:01:01;;;;;;;2.30;1.55;;;11.50;99.90;;;;;;4827380;29;20194;-82
2022/10/17 06:03:27;;;;;;;3.58;1.60;;;11.50;99.90;;;;;;4810175;29;20258;-81
2022/10/17 06:05:53;;;;;;;1.65;1.50;;;11.50;99.90;;;;;;4810786;29;20251;-82
2022/10/17 06:08:19;;;;;;;2.60;1.75;;;11.50;99.90;;;;;;4810997;29;20186;-81
2022/10/17 06:10:49;;;;;;;2.28;1.58;;;11.60;99.90;;;;;;4814108;29;20273;-82
2022/10/17 06:13:18;;;;;;;1.92;1.40;;;11.60;99.90;;;;;;4819954;29;20585;-82
2022/10/17 06:15:44;;;;;;;4.43;1.67;;;11.60;99.90;;;;;;4826324;29;20257;-81
2022/10/17 06:18:10;;;;;;;4.35;1.80;;;11.70;99.90;;;;;;4826236;29;20277;-82
2022/10/17 06:20:36;;;;;;;2.83;1.60;;;11.70;99.90;;;;;;4831355;29;20201;-82
2022/10/17 06:23:03;;;;;;;2.28;1.60;;;11.80;99.90;;;;;;4826017;29;20201;-82
2022/10/17 06:25:32;;;;;;;3.47;1.95;;;12.00;99.90;;;;;;4825933;29;20218;-82
2022/10/17 06:27:58;;;;;;;3.85;2.08;;;12.20;99.90;;;;;;4825003;29;20201;-82
2022/10/17 06:30:23;;;;;;;5.65;2.00;;;12.30;99.90;;;;;;4811248;29;20202;-82
2022/10/17 06:32:51;;;;;;;3.53;2.10;;;12.40;99.90;;;;;;4821550;29;21197;-82
2022/10/17 06:35:17;;;;;;;2.45;2.05;;;12.50;99.90;;;;;;4806701;29;20200;-82
2022/10/17 06:37:43;;;;;;;2.60;2.03;;;12.50;99.90;;;;;;4807267;29;20186;-82
2022/10/17 06:40:11;;;;;;;2.22;1.80;;;12.60;99.90;;;;;;4821955;29;20197;-82
2022/10/17 06:42:37;;;;;;;7.25;2.72;;;12.60;99.90;;;;;;4806833;29;20221;-81
2022/10/17 06:45:04;;;;;;;6.00;2.10;;;12.60;99.90;;;;;;4808890;29;20217;-82
2022/10/17 06:47:30;;;;;;;7.47;2.30;;;12.70;99.90;;;;;;4810124;29;20203;-82
2022/10/17 06:49:56;;;;;;;2.45;2.10;;;12.80;99.90;;;;;;4826577;29;20249;-83
2022/10/17 06:52:22;;;;;;;2.45;2.15;;;12.90;99.90;;;;;;4808624;29;20293;-83
2022/10/17 06:54:47;;;;;;;3.42;2.25;;;13.00;99.90;;;;;;4815889;29;20280;-83
2022/10/17 06:57:13;;;;;;;3.03;2.28;;;13.00;99.90;;;;;;4809695;29;20590;-83
2022/10/17 06:59:39;;;;;;;2.85;2.40;;;13.10;99.90;;;;;;4805401;29;20202;-83
2022/10/17 07:02:05;;;;;;;2.97;2.20;;;13.20;99.90;;;;;;4807284;29;20186;-83
2022/10/17 07:04:31;;;;;;;4.55;2.40;;;13.20;99.90;;;;;;4805398;29;20194;-82
2022/10/17 07:06:56;;;;;;;7.63;2.92;;;13.30;99.90;;;;;;4807994;29;20522;-83
2022/10/17 07:09:23;;;;;;;3.25;2.17;;;13.40;99.90;;;;;;4805890;29;20654;-83
2022/10/17 07:11:49;;;;;;;6.57;2.53;;;13.50;99.90;;;;;;4807496;29;20281;-83
2022/10/17 07:14:14;;;;;;;7.45;2.65;;;13.50;99.90;;;;;;4805955;29;20270;-83
2022/10/17 07:16:40;;;;;;;4.00;2.50;;;13.70;99.90;;;;;;4807161;29;20219;-83
2022/10/17 07:19:05;;;;;;;5.28;2.45;;;13.80;99.90;;;;;;4814965;29;20198;-83
2022/10/17 07:21:31;;;;;;;3.25;2.35;;;13.90;99.90;;;;;;4807878;29;20179;-82
2022/10/17 07:23:57;;;;;;;5.63;2.90;;;14.00;99.90;;;;;;4818933;29;20256;-82
2022/10/17 07:26:23;;;;;;;4.72;2.40;;;14.10;99.90;;;;;;4804196;29;20566;-82
2022/10/17 07:28:51;;;;;;;7.68;2.83;;;14.20;99.90;;;;;;4821303;29;20174;-82
2022/10/17 07:31:19;;;;;;;4.93;2.40;;;14.30;99.90;;;;;;4809544;29;20268;-83
2022/10/17 07:33:45;;;;;;;2.70;2.30;;;14.40;99.90;;;;;;4824062;29;20198;-83
2022/10/17 07:36:11;;;;;;;3.67;2.20;;;14.50;99.90;;;;;;4820033;29;20202;-83
2022/10/17 07:38:38;;;;;;;3.95;2.10;;;14.70;99.90;;;;;;4821390;29;20187;-83
2022/10/17 07:41:05;;;;;;;3.40;2.38;;;14.80;99.90;;;;;;4822832;29;20190;-83
2022/10/17 07:43:32;;;;;;;4.88;2.35;;;14.90;99.90;;;;;;4810122;29;20197;-83
2022/10/17 07:45:57;;;;;;;3.03;2.20;;;15.00;99.90;;;;;;4808270;29;20366;-84
2022/10/17 07:48:24;;;;;;;2.95;2.08;;;15.00;99.90;;;;;;4807072;29;20678;-82
2022/10/17 07:50:50;;;;;;;5.57;2.35;;;15.10;99.90;;;;;;4822411;29;20190;-83
2022/10/17 07:53:16;;;;;;;5.68;2.20;;;15.10;99.90;;;;;;4825309;29;20318;-83
2022/10/17 07:55:45;;;;;;;2.05;1.85;;;15.20;99.90;;;;;;4823962;29;20746;-82
2022/10/17 07:58:11;;;;;;;2.55;2.17;;;15.30;99.90;;;;;;4811683;29;20284;-82
2022/10/17 08:00:38;;;;;;;3.35;2.25;;;15.40;99.90;;;;;;4807704;29;20258;-87
2022/10/17 08:03:04;;;;;;;4.32;2.42;;;15.50;99.90;;;;;;4823340;29;20185;-86
2022/10/17 08:05:30;;;;;;;7.97;2.60;;;15.60;99.90;;;;;;4822724;29;20668;-86
2022/10/17 08:07:56;;;;;;;7.22;2.50;;;15.70;99.90;;;;;;4824305;29;20185;-83
2022/10/17 08:10:27;;;;;;;3.15;2.38;;;15.90;99.90;;;;;;4824790;29;20192;-88
2022/10/17 08:12:57;;;;;;;6.90;2.50;;;16.00;99.90;;;;;;4816606;29;20201;-89
2022/10/17 08:15:24;;;;;;;3.05;2.22;;;16.10;99.90;;;;;;4826158;29;20626;-89
2022/10/17 08:17:50;;;;;;;6.47;2.75;;;16.20;99.90;;;;;;4816625;29;20205;-88
2022/10/17 08:20:16;;;;;;;2.70;2.17;;;16.30;99.90;;;;;;4812741;29;20189;-87
2022/10/17 08:22:42;;;;;;;6.45;2.35;;;16.40;99.90;;;;;;4806308;29;20193;-88
2022/10/17 08:25:09;;;;;;;4.07;2.13;;;16.50;99.90;;;;;;4823409;29;20525;-90
2022/10/17 08:27:40;;;;;;;2.53;2.15;;;16.60;99.90;;;;;;4809793;29;20189;-89
2022/10/17 08:30:07;;;;;;;7.38;2.50;;;16.80;99.90;;;;;;4824053;29;20166;-89
2022/10/17 08:32:32;;;;;;;2.88;2.17;;;16.80;99.90;;;;;;4824440;29;20689;-87
2022/10/17 08:34:58;;;;;;;2.58;2.00;;;16.90;99.90;;;;;;4808701;29;20213;-90
2022/10/17 08:37:31;;;;;;;4.82;2.17;;;17.00;99.90;;;;;;4825970;29;20178;-90
2022/10/17 08:39:57;;;;;;;7.03;1.90;;;17.10;99.90;;;;;;4825250;29;20194;-90
2022/10/17 08:42:55;;;;;;;6.75;2.20;;;17.10;99.90;;;;;;4809297;29;20197;-90
2022/10/17 08:45:34;;;;;;;2.83;1.90;;;17.10;99.90;;;;;;4826387;29;20177;-93
2022/10/17 08:48:07;;;;;;;4.45;2.28;;;17.20;99.90;;;;;;4825245;29;20349;-91
2022/10/17 08:50:59;;;;;;;3.08;2.35;;;17.20;99.90;;;;;;4812837;29;20190;-88
2022/10/17 08:53:30;;;;;;;3.00;2.20;;;17.30;99.90;;;;;;4797732;29;20201;-94
2022/10/17 08:55:59;;;;;;;3.30;2.25;;;17.40;99.90;;;;;;4808325;29;20198;-90
2022/10/17 08:58:37;;;;;;;3.17;2.28;;;17.40;99.90;;;;;;4806201;29;20207;-92
2022/10/17 09:01:08;;;;;;;10.55;2.85;;;17.50;99.90;;;;;;4814438;29;20346;-89
2022/10/17 09:04:09;;;;;;;3.13;2.20;;;17.50;99.90;;;;;;4825141;29;20185;-91
2022/10/17 09:06:43;;;;;;;6.95;2.20;;;17.60;99.90;;;;;;4817689;29;20214;-89
2022/10/17 09:09:18;;;;;;;4.85;2.05;;;17.70;99.90;;;;;;4809899;29;20185;-94
2022/10/17 09:12:13;;;;;;;2.50;2.13;;;17.70;99.90;;;;;;4809139;29;20507;-92
2022/10/17 09:15:22;;;;;;;4.55;2.35;;;17.80;99.90;;;;;;4825741;29;20203;-91
2022/10/17 09:17:53;;;;;;;3.88;2.08;;;18.00;99.90;;;;;;4809511;29;20206;-92
2022/10/17 09:20:24;;;;;;;3.20;2.20;;;18.20;99.90;;;;;;4822601;29;20278;-91
2022/10/17 09:22:57;;;;;;;6.18;2.05;;;18.30;99.90;;;;;;4809111;29;20175;-90
2022/10/17 09:25:23;;;;;;;6.85;2.10;;;18.40;99.90;;;;;;4824566;29;20282;-90
2022/10/17 09:28:09;;;;;;;4.35;1.92;;;18.50;99.90;;;;;;4825219;29;20186;-90
2022/10/17 09:31:05;;;;;;;5.20;2.10;;;18.60;99.90;;;;;;4824025;29;20187;-91
2022/10/17 09:33:49;;;;;;;3.50;2.00;;;18.80;99.90;;;;;;4807458;29;20556;-89
2022/10/17 09:36:22;;;;;;;3.03;2.08;;;19.00;99.90;;;;;;4818071;29;20252;-88
2022/10/17 09:38:56;;;;;;;2.45;1.95;;;19.20;99.90;;;;;;4824427;29;20280;-87
2022/10/17 09:41:44;;;;;;;5.10;1.90;;;19.20;99.90;;;;;;4822474;29;20221;-88
2022/10/17 09:44:16;;;;;;;2.67;2.10;;;19.30;99.90;;;;;;4809129;29;20224;-88
2022/10/17 09:46:57;;;;;;;2.88;1.75;;;19.40;99.90;;;;;;4809930;29;20617;-87
2022/10/17 09:49:34;;;;;;;3.20;2.00;;;19.40;99.90;;;;;;4821636;29;20537;-86
2022/10/17 09:52:05;;;;;;;2.75;1.70;;;19.40;99.90;;;;;;4814006;29;20626;-89
2022/10/17 09:54:45;;;;;;;4.95;1.90;;;19.40;99.90;;;;;;4827806;29;20200;-88
2022/10/17 09:57:13;;;;;;;2.13;1.80;;;19.50;99.90;;;;;;4835108;29;20181;-86
2022/10/17 09:59:55;;;;;;;6.45;2.17;;;19.50;99.90;;;;;;4810230;29;20660;-85
2022/10/17 10:02:23;;;;;;;4.45;1.90;;;19.60;99.90;;;;;;4810559;29;20721;-86
2022/10/17 10:05:04;;;;;;;4.55;1.70;;;19.70;99.90;;;;;;4827198;29;20260;-85
2022/10/17 10:07:33;;;;;;;7.03;1.98;;;19.60;99.90;;;;;;4808730;29;20214;-86
2022/10/17 10:10:01;;;;;;;4.50;1.80;;;19.70;99.90;;;;;;4825952;29;20221;-85
2022/10/17 10:12:33;;;;;;;4.75;2.22;;;19.70;99.90;;;;;;4814920;29;20202;-86
2022/10/17 10:14:59;;;;;;;6.43;1.92;;;19.80;99.90;;;;;;4824767;29;20162;-86
2022/10/17 10:17:36;;;;;;;5.03;1.95;;;19.80;99.90;;;;;;4809822;29;20637;-86
2022/10/17 10:20:33;;;;;;;6.80;2.08;;;19.80;99.90;;;;;;4825379;29;20182;-87
2022/10/17 10:23:20;;;;;;;4.93;1.90;;;19.90;99.90;;;;;;4821363;29;20201;-86
2022/10/17 10:26:21;;;;;;;2.35;1.83;;;20.00;99.90;;;;;;4810546;29;20218;-87
2022/10/17 10:29:29;;;;;;;4.45;2.15;;;20.10;99.90;;;;;;4819670;29;20182;-88
2022/10/17 10:31:57;;;;;;;6.38;1.95;;;20.30;99.90;;;;;;4814420;29;20225;-86
2022/10/17 10:34:31;;;;;;;2.40;2.10;;;20.40;99.90;;;;;;4822612;29;20594;-86
2022/10/17 10:36:59;;;;;;;4.10;1.90;;;20.40;99.90;;;;;;4816109;29;20272;-86
2022/10/17 10:39:36;;;;;;;1.90;1.73;;;20.40;99.90;;;;;;4826696;29;20185;-86
2022/10/17 10:42:05;;;;;;;2.78;1.88;;;20.60;99.90;;;;;;4811541;29;20185;-86
2022/10/17 10:44:32;;;;;;;3.35;1.90;;;20.60;99.90;;;;;;4826482;29;20549;-86
2022/10/17 10:47:16;;;;;;;4.03;1.90;;;20.60;99.90;;;;;;4823477;29;20264;-86
2022/10/17 10:49:42;;;;;;;3.92;1.90;;;20.60;99.90;;;;;;4808697;29;20240;-85
2022/10/17 10:52:18;;;;;;;3.65;1.92;;;20.50;99.90;;;;;;4801510;29;20244;-85
2022/10/17 10:54:53;;;;;;;5.30;2.10;;;20.60;99.90;;;;;;4826080;29;20166;-85
2022/10/17 10:57:23;;;;;;;2.55;1.70;;;20.80;99.90;;;;;;4814526;29;20275;-85
2022/10/17 11:00:03;;;;;;;5.15;2.13;;;20.90;99.90;;;;;;4808466;29;20498;-84
2022/10/17 11:02:51;;;;;;;3.65;2.10;;;21.00;99.90;;;;;;4803188;29;20193;-85
2022/10/17 11:05:41;;;;;;;6.22;2.20;;;21.10;99.90;;;;;;4809477;29;20198;-84
2022/10/17 11:08:25;;;;;;;10.18;2.00;;;21.20;99.90;;;;;;4808944;29;20210;-88
2022/10/17 11:11:23;;;;;;;5.82;2.03;;;21.10;99.90;;;;;;4825413;29;20194;-85
2022/10/17 11:14:01;;;;;;;3.33;2.03;;;21.20;99.90;;;;;;4805887;29;20642;-91
2022/10/17 11:16:38;;;;;;;3.90;1.80;;;21.20;99.90;;;;;;4820380;29;20194;-88
2022/10/17 11:19:19;;;;;;;4.63;1.80;;;21.30;99.90;;;;;;4825716;29;20194;-90
2022/10/17 11:22:10;;;;;;;4.30;1.92;;;21.20;99.90;;;;;;4810270;29;20274;-88
2022/10/17 11:24:56;;;;;;;3.42;1.85;;;21.10;99.90;;;;;;4809459;29;20194;-87
2022/10/17 11:27:23;;;;;;;3.67;1.90;;;21.00;99.90;;;;;;4820799;29;20214;-88
2022/10/17 11:29:50;;;;;;;2.65;1.67;;;21.00;99.90;;;;;;4821435;29;20194;-85
2022/10/17 11:32:25;;;;;;;4.55;2.10;;;21.00;99.90;;;;;;4809074;29;20576;-87
2022/10/17 11:34:56;;;;;;;7.85;2.00;;;21.00;99.90;;;;;;4825817;29;20185;-85
2022/10/17 11:37:30;;;;;;;4.32;2.28;;;21.00;99.90;;;;;;4818242;29;20193;-87
2022/10/17 11:40:14;;;;;;;5.13;2.10;;;20.90;99.90;;;;;;4825619;29;20246;-82
2022/10/17 11:43:26;;;;;;;3.42;1.73;;;21.00;99.90;;;;;;4803936;29;20580;-86
2022/10/17 11:45:56;;;;;;;2.42;1.75;;;21.00;99.90;;;;;;4824269;29;20745;-88
2022/10/17 11:48:47;;;;;;;5.00;2.15;;;20.90;99.90;;;;;;4810818;29;20205;-86
2022/10/17 11:51:14;;;;;;;4.22;1.77;;;21.00;99.90;;;;;;4828960;29;20596;-86
2022/10/17 11:53:54;;;;;;;5.40;1.75;;;21.20;99.90;;;;;;4827562;29;20213;-86
2022/10/17 11:56:39;;;;;;;2.88;1.92;;;21.30;99.90;;;;;;4836504;29;20193;-85
2022/10/17 11:59:36;;;;;;;5.68;1.83;;;21.30;99.90;;;;;;4813674;29;20196;-89
2022/10/17 12:02:14;;;;;;;5.30;2.25;;;21.40;99.90;;;;;;4824716;29;20686;-90
2022/10/17 12:04:54;;;;;;;5.55;1.80;;;21.60;99.90;;;;;;4825409;29;20197;-89
2022/10/17 12:07:43;;;;;;;2.53;1.73;;;21.80;99.90;;;;;;4827236;29;20209;-86
2022/10/17 12:10:26;;;;;;;4.68;1.67;;;21.70;99.90;;;;;;4832065;29;20193;-88
2022/10/17 12:12:52;;;;;;;2.67;1.70;;;21.70;99.90;;;;;;4825796;29;20288;-92
2022/10/17 12:15:24;;;;;;;3.88;1.52;;;21.70;99.90;;;;;;4824801;29;20341;-89
2022/10/17 12:18:01;;;;;;;3.22;1.85;;;21.70;99.90;;;;;;4814761;29;20201;-87
2022/10/17 12:20:33;;;;;;;3.10;1.70;;;21.70;99.90;;;;;;4824685;29;20185;-90
2022/10/17 12:23:11;;;;;;;5.93;1.70;;;21.80;99.90;;;;;;4824750;29;20692;-88
2022/10/17 12:26:00;;;;;;;3.78;2.10;;;22.10;99.90;;;;;;4807002;29;20213;-87
2022/10/17 12:28:30;;;;;;;4.63;2.17;;;22.40;99.90;;;;;;4824390;29;20193;-88
2022/10/17 12:31:11;;;;;;;6.03;1.58;;;22.60;99.90;;;;;;4811892;29;20186;-87
2022/10/17 12:33:58;;;;;;;3.80;1.60;;;23.00;99.90;;;;;;4831832;29;20250;-86
2022/10/17 12:36:29;;;;;;;4.57;1.80;;;23.10;99.90;;;;;;4814239;29;20256;-87
2022/10/17 12:39:01;;;;;;;2.10;1.42;;;23.30;99.90;;;;;;4790799;29;20637;-87
2022/10/17 12:41:40;;;;;;;3.63;1.33;;;23.30;99.90;;;;;;4793907;29;20290;-87
2022/10/17 12:44:26;;;;;;;3.33;1.35;;;23.30;99.90;;;;;;4807347;29;20254;-87
2022/10/17 12:47:04;;;;;;;3.63;1.48;;;23.30;99.90;;;;;;4811690;29;20249;-91
2022/10/17 12:49:45;;;;;;;3.63;1.70;;;23.20;99.90;;;;;;4824618;29;20186;-91
2022/10/17 12:52:22;;;;;;;5.07;1.40;;;23.30;99.90;;;;;;4825240;29;20189;-90
2022/10/17 12:55:05;;;;;;;4.32;1.30;;;23.10;99.90;;;;;;4822501;29;20211;-86
2022/10/17 12:57:55;;;;;;;5.25;1.50;;;23.00;99.90;;;;;;4806257;29;20594;-91
2022/10/17 13:00:32;;;;;;;4.35;1.52;;;22.80;99.90;;;;;;4802743;29;20221;-87
2022/10/17 13:03:11;;;;;;;3.03;1.42;;;22.70;99.90;;;;;;4826156;29;20278;-91
2022/10/17 13:05:42;;;;;;;5.45;1.52;;;22.60;99.90;;;;;;4814492;29;20308;-90
2022/10/17 13:08:16;;;;;;;5.82;1.77;;;22.60;99.90;;;;;;4830312;29;20201;-84
2022/10/17 13:10:45;;;;;;;2.17;1.30;;;22.70;99.90;;;;;;4833987;29;20225;-86
2022/10/17 13:13:35;;;;;;;5.55;1.40;;;22.90;99.90;;;;;;4818458;29;20192;-89